createdAt,value
2018-10-05T00:01:28.715Z,49.70
2018-10-05T00:03:57.231Z,49.80
2018-10-05T00:06:25.694Z,49.80
2018-10-05T00:08:54.182Z,49.90
2018-10-05T00:11:22.847Z,49.90
2018-10-05T00:13:51.359Z,49.80
2018-10-05T00:16:19.855Z,49.80
2018-10-05T00:18:48.395Z,49.80
2018-10-05T00:21:16.975Z,49.80
2018-10-05T00:23:45.400Z,49.80
2018-10-05T00:26:13.890Z,49.90
2018-10-05T00:28:42.370Z,49.90
2018-10-05T00:37:56.258Z,49.90
2018-10-05T00:40:26.602Z,49.90
2018-10-05T00:42:55.315Z,49.90
2018-10-05T00:45:23.914Z,49.90
2018-10-05T00:47:52.391Z,49.90
2018-10-05T00:50:20.850Z,49.90
2018-10-05T00:52:49.342Z,49.90
2018-10-05T00:55:17.875Z,49.90
2018-10-05T00:57:46.358Z,49.90
2018-10-05T01:00:15.202Z,49.90
2018-10-05T01:02:43.790Z,49.90
2018-10-05T01:05:12.314Z,49.90
2018-10-05T01:07:41.123Z,50.00
2018-10-05T01:10:09.642Z,50.00
2018-10-05T01:12:39.180Z,50.00
2018-10-05T01:15:07.830Z,49.90
2018-10-05T01:17:36.551Z,50.00
2018-10-05T01:20:05.082Z,50.00
2018-10-05T01:22:33.610Z,50.00
2018-10-05T01:25:02.437Z,50.00
2018-10-05T01:27:30.948Z,50.00
2018-10-05T01:29:59.465Z,50.00
2018-10-05T01:32:28.265Z,50.00
2018-10-05T01:34:56.716Z,50.00
2018-10-05T01:37:25.247Z,50.00
2018-10-05T01:39:53.714Z,49.90
2018-10-05T01:42:22.611Z,49.90
2018-10-05T01:44:51.174Z,49.90
2018-10-05T01:47:19.690Z,49.90
2018-10-05T01:49:48.173Z,50.00
2018-10-05T01:52:16.742Z,50.60
2018-10-05T01:54:45.500Z,49.90
2018-10-05T01:57:13.951Z,49.90
2018-10-05T01:59:42.472Z,50.00
2018-10-05T02:02:10.963Z,50.60
2018-10-05T02:04:39.481Z,50.00
2018-10-05T02:07:07.989Z,50.00
2018-10-05T02:09:36.427Z,50.60
2018-10-05T02:12:05.266Z,50.00
2018-10-05T02:14:33.976Z,50.00
2018-10-05T02:17:02.542Z,50.00
2018-10-05T02:19:31.162Z,50.00
2018-10-05T02:21:59.667Z,50.00
2018-10-05T02:24:28.117Z,50.00
2018-10-05T02:26:56.641Z,50.00
2018-10-05T02:29:25.175Z,50.00
2018-10-05T02:31:53.687Z,50.00
2018-10-05T02:34:22.234Z,50.00
2018-10-05T02:36:50.770Z,50.00
2018-10-05T02:39:19.217Z,50.00
2018-10-05T02:41:47.769Z,50.00
2018-10-05T02:44:16.238Z,50.00
2018-10-05T02:49:44.520Z,50.60
2018-10-05T02:52:13.078Z,50.00
2018-10-05T02:54:41.575Z,50.00
2018-10-05T02:57:10.161Z,50.00
2018-10-05T02:59:38.918Z,50.00
2018-10-05T03:02:18.891Z,50.00
2018-10-05T03:04:47.410Z,50.00
2018-10-05T03:07:16.217Z,50.00
2018-10-05T03:09:44.758Z,50.00
2018-10-05T03:12:13.407Z,50.00
2018-10-05T03:14:41.965Z,50.10
2018-10-05T03:17:10.414Z,50.10
2018-10-05T03:19:39.396Z,50.10
2018-10-05T03:22:07.989Z,50.00
2018-10-05T03:24:36.797Z,50.00
2018-10-05T03:27:05.445Z,50.10
2018-10-05T03:29:33.887Z,50.00
2018-10-05T03:32:02.623Z,50.10
2018-10-05T03:34:31.188Z,50.10
2018-10-05T03:36:59.764Z,50.00
2018-10-05T03:39:28.298Z,50.10
2018-10-05T03:41:57.000Z,50.60
2018-10-05T03:44:25.523Z,50.00
2018-10-05T03:46:53.994Z,50.00
2018-10-05T03:49:22.610Z,50.10
2018-10-05T03:51:51.061Z,50.00
2018-10-05T03:54:19.733Z,50.10
2018-10-05T03:56:48.319Z,50.10
2018-10-05T03:59:17.130Z,50.00
2018-10-05T04:01:45.616Z,50.00
2018-10-05T04:04:14.243Z,50.00
2018-10-05T04:06:42.825Z,50.00
2018-10-05T04:09:11.557Z,50.00
2018-10-05T04:11:40.479Z,50.60
2018-10-05T04:14:09.003Z,50.10
2018-10-05T04:16:37.835Z,50.10
2018-10-05T04:19:06.619Z,50.10
2018-10-05T04:21:35.228Z,50.10
2018-10-05T04:24:04.097Z,50.10
2018-10-05T04:26:32.591Z,50.10
2018-10-05T04:29:01.567Z,50.10
2018-10-05T04:31:30.010Z,50.10
2018-10-05T04:33:58.625Z,50.00
2018-10-05T04:36:27.142Z,50.00
2018-10-05T04:38:55.953Z,50.10
2018-10-05T04:41:24.684Z,50.10
2018-10-05T04:43:53.130Z,50.10
2018-10-05T04:46:21.823Z,50.10
2018-10-05T04:48:50.359Z,50.50
2018-10-05T04:51:18.793Z,50.10
2018-10-05T04:53:47.302Z,50.10
2018-10-05T04:56:15.923Z,50.10
2018-10-05T04:58:44.562Z,50.10
2018-10-05T05:01:13.109Z,50.10
2018-10-05T05:03:41.802Z,50.10
2018-10-05T05:06:10.350Z,50.10
2018-10-05T05:08:39.674Z,50.10
2018-10-05T05:11:08.381Z,50.10
2018-10-05T05:13:36.898Z,50.10
2018-10-05T05:16:05.351Z,50.10
2018-10-05T05:18:33.809Z,50.10
2018-10-05T05:21:02.301Z,50.10
2018-10-05T05:23:30.894Z,50.10
2018-10-05T05:25:59.649Z,50.10
2018-10-05T05:28:28.116Z,50.10
2018-10-05T05:30:56.657Z,50.00
2018-10-05T05:33:25.286Z,50.10
2018-10-05T05:35:53.831Z,50.10
2018-10-05T05:38:22.349Z,50.10
2018-10-05T05:40:50.996Z,50.40
2018-10-05T05:43:19.680Z,50.10
2018-10-05T05:45:48.260Z,50.00
2018-10-05T05:48:16.940Z,50.10
2018-10-05T05:50:45.550Z,50.10
2018-10-05T05:53:14.619Z,50.10
2018-10-05T05:55:44.089Z,50.10
2018-10-05T05:58:12.759Z,50.10
2018-10-05T06:00:41.301Z,50.10
2018-10-05T06:03:09.923Z,50.10
2018-10-05T06:05:38.532Z,50.10
2018-10-05T06:08:07.327Z,50.20
2018-10-05T06:10:35.920Z,50.10
2018-10-05T06:13:04.375Z,50.10
2018-10-05T06:15:32.887Z,50.20
2018-10-05T06:18:01.359Z,50.20
2018-10-05T06:20:29.882Z,50.20
2018-10-05T06:22:58.431Z,50.60
2018-10-05T06:25:26.884Z,50.30
2018-10-05T06:27:55.555Z,50.30
2018-10-05T06:30:24.295Z,50.30
2018-10-05T06:32:52.763Z,50.40
2018-10-05T06:35:21.367Z,50.40
2018-10-05T06:37:49.962Z,50.40
2018-10-05T06:40:18.814Z,50.40
2018-10-05T06:42:47.335Z,50.30
2018-10-05T06:45:15.884Z,50.30
2018-10-05T06:47:44.609Z,50.30
2018-10-05T06:50:13.204Z,50.30
2018-10-05T06:52:41.714Z,50.20
2018-10-05T06:55:10.366Z,50.20
2018-10-05T06:57:39.336Z,50.20
2018-10-05T07:00:08.272Z,50.20
2018-10-05T07:02:36.734Z,50.20
2018-10-05T07:05:05.453Z,50.20
2018-10-05T07:07:34.279Z,50.10
2018-10-05T07:10:03.065Z,50.20
2018-10-05T07:12:31.634Z,50.10
2018-10-05T07:15:00.128Z,50.10
2018-10-05T07:17:28.598Z,50.10
2018-10-05T07:19:57.070Z,50.10
2018-10-05T07:22:25.808Z,50.10
2018-10-05T07:24:54.352Z,50.00
2018-10-05T07:27:23.070Z,50.00
2018-10-05T07:29:51.509Z,50.00
2018-10-05T07:32:20.171Z,50.00
2018-10-05T07:34:48.669Z,50.00
2018-10-05T07:37:17.405Z,50.00
2018-10-05T07:39:46.118Z,50.00
2018-10-05T07:42:14.754Z,49.90
2018-10-05T07:44:43.325Z,50.00
2018-10-05T07:47:12.337Z,50.00
2018-10-05T07:49:41.056Z,50.00
2018-10-05T07:52:09.538Z,50.50
2018-10-05T07:54:38.146Z,49.90
2018-10-05T07:57:06.941Z,49.90
2018-10-05T07:59:35.523Z,49.90
2018-10-05T08:02:04.179Z,49.80
2018-10-05T08:04:33.156Z,49.80
2018-10-05T08:07:02.050Z,49.80
2018-10-05T08:09:30.705Z,49.80
2018-10-05T08:11:59.205Z,49.80
2018-10-05T08:14:27.794Z,49.80
2018-10-05T08:16:56.392Z,49.80
2018-10-05T08:19:25.208Z,49.80
2018-10-05T08:21:53.724Z,49.80
2018-10-05T08:24:22.357Z,49.80
2018-10-05T08:26:51.204Z,49.80
2018-10-05T08:29:19.729Z,49.70
2018-10-05T08:31:48.218Z,49.80
2018-10-05T08:34:16.703Z,49.80
2018-10-05T08:36:45.328Z,49.70
2018-10-05T08:39:13.986Z,49.70
2018-10-05T08:41:42.515Z,49.70
2018-10-05T08:44:11.351Z,49.70
2018-10-05T08:46:40.825Z,49.70
2018-10-05T08:49:09.313Z,49.70
2018-10-05T08:51:40.811Z,49.70
2018-10-05T08:54:11.904Z,49.70
2018-10-05T08:56:43.461Z,49.70
2018-10-05T08:59:12.379Z,49.70
2018-10-05T09:01:43.296Z,49.70
2018-10-05T09:04:13.650Z,49.70
2018-10-05T09:06:42.627Z,49.70
2018-10-05T09:09:11.141Z,49.70
2018-10-05T09:11:40.051Z,49.70
2018-10-05T09:14:08.615Z,49.60
2018-10-05T09:16:38.261Z,49.60
2018-10-05T09:19:06.785Z,49.60
2018-10-05T09:21:35.229Z,49.60
2018-10-05T09:24:03.885Z,49.70
2018-10-05T09:26:32.606Z,49.70
2018-10-05T09:29:01.442Z,49.70
2018-10-05T09:31:30.059Z,49.70
2018-10-05T09:33:58.548Z,49.70
2018-10-05T09:36:27.282Z,49.60
2018-10-05T09:38:55.839Z,49.60
2018-10-05T09:41:24.341Z,49.60
2018-10-05T09:43:52.945Z,49.60
2018-10-05T09:46:21.547Z,49.50
2018-10-05T09:48:50.125Z,49.50
2018-10-05T09:51:18.629Z,49.50
2018-10-05T09:53:47.283Z,49.50
2018-10-05T09:56:15.801Z,49.50
2018-10-05T09:58:44.456Z,49.50
2018-10-05T10:01:18.486Z,49.60
2018-10-05T10:03:47.065Z,49.50
2018-10-05T10:06:15.626Z,49.50
2018-10-05T10:08:44.227Z,49.50
2018-10-05T10:11:12.744Z,49.50
2018-10-05T10:13:41.303Z,49.50
2018-10-05T10:16:09.770Z,49.50
2018-10-05T10:18:38.671Z,49.60
2018-10-05T10:21:07.133Z,49.50
2018-10-05T10:23:35.615Z,49.50
2018-10-05T10:26:04.077Z,49.60
2018-10-05T10:28:32.753Z,49.50
2018-10-05T10:31:01.727Z,49.50
2018-10-05T10:33:30.540Z,49.50
2018-10-05T10:35:59.226Z,49.50
2018-10-05T10:38:27.766Z,49.50
2018-10-05T10:40:56.312Z,49.50
2018-10-05T10:43:24.901Z,49.50
2018-10-05T10:45:53.456Z,49.50
2018-10-05T10:48:22.080Z,49.50
2018-10-05T10:50:50.523Z,49.60
2018-10-05T10:53:19.307Z,49.50
2018-10-05T10:55:48.020Z,49.50
2018-10-05T10:58:16.583Z,49.50
2018-10-05T11:00:45.188Z,49.50
2018-10-05T11:03:13.905Z,49.70
2018-10-05T11:05:42.893Z,50.10
2018-10-05T11:08:11.784Z,49.40
2018-10-05T11:10:41.067Z,49.40
2018-10-05T11:13:09.578Z,49.40
2018-10-05T11:15:38.178Z,49.50
2018-10-05T11:18:06.631Z,49.70
2018-10-05T11:20:35.470Z,49.40
2018-10-05T11:23:04.140Z,49.40
2018-10-05T11:25:32.619Z,49.40
2018-10-05T11:28:01.082Z,49.40
2018-10-05T11:30:29.606Z,48.90
2018-10-05T11:32:58.119Z,49.50
2018-10-05T11:35:26.781Z,49.30
2018-10-05T11:37:55.349Z,49.40
2018-10-05T11:40:23.889Z,49.40
2018-10-05T11:42:52.375Z,49.40
2018-10-05T11:45:20.882Z,49.40
2018-10-05T11:47:49.346Z,49.40
2018-10-05T11:50:17.838Z,49.40
2018-10-05T11:52:46.502Z,49.40
2018-10-05T11:55:15.348Z,49.40
2018-10-05T11:57:44.700Z,49.40
2018-10-05T12:00:16.887Z,49.40
2018-10-05T12:02:45.382Z,49.40
2018-10-05T12:05:14.532Z,49.40
2018-10-05T12:07:43.569Z,49.40
2018-10-05T12:10:12.551Z,49.50
2018-10-05T12:12:41.286Z,49.40
2018-10-05T12:15:10.093Z,49.50
2018-10-05T12:17:39.996Z,49.50
2018-10-05T12:20:08.912Z,49.50
2018-10-05T12:22:37.736Z,49.50
2018-10-05T12:25:06.702Z,49.50
2018-10-05T12:27:35.227Z,49.50
2018-10-05T12:30:03.838Z,49.50
2018-10-05T12:32:32.318Z,49.50
2018-10-05T12:35:00.890Z,49.60
2018-10-05T12:37:29.420Z,49.60
2018-10-05T12:39:58.112Z,49.50
2018-10-05T12:42:26.710Z,49.50
2018-10-05T12:44:55.201Z,49.60
2018-10-05T12:47:23.697Z,49.60
2018-10-05T12:49:52.298Z,49.70
2018-10-05T12:52:20.760Z,49.70
2018-10-05T12:54:49.333Z,49.70
2018-10-05T12:57:17.839Z,49.70
2018-10-05T12:59:46.304Z,49.70
2018-10-05T13:02:15.048Z,49.70
2018-10-05T13:04:43.823Z,49.70
2018-10-05T13:07:12.796Z,49.60
2018-10-05T13:09:41.438Z,49.70
2018-10-05T13:12:10.152Z,49.70
2018-10-05T13:14:39.350Z,49.70
2018-10-05T13:17:07.948Z,49.70
2018-10-05T13:19:36.583Z,49.70
2018-10-05T13:22:05.302Z,49.80
2018-10-05T13:24:33.902Z,49.80
2018-10-05T13:27:02.489Z,49.80
2018-10-05T13:29:31.232Z,49.70
2018-10-05T13:32:00.000Z,49.70
2018-10-05T13:34:28.621Z,49.70
2018-10-05T13:36:57.154Z,49.70
2018-10-05T13:39:25.742Z,49.70
2018-10-05T13:41:54.499Z,49.70
2018-10-05T13:44:22.962Z,49.70
2018-10-05T13:46:51.570Z,49.70
2018-10-05T13:49:20.175Z,49.70
2018-10-05T13:51:48.785Z,49.70
2018-10-05T13:54:17.334Z,49.70
2018-10-05T13:56:46.041Z,49.80
2018-10-05T13:59:14.631Z,49.80
2018-10-05T14:01:43.293Z,49.80
2018-10-05T14:04:11.788Z,49.70
2018-10-05T14:06:40.734Z,49.70
2018-10-05T14:09:10.190Z,49.80
2018-10-05T14:11:39.478Z,49.80
2018-10-05T14:14:08.219Z,49.80
2018-10-05T14:16:37.697Z,49.80
2018-10-05T14:19:06.650Z,49.80
2018-10-05T14:21:35.280Z,49.80
2018-10-05T14:24:04.222Z,49.90
2018-10-05T14:26:32.703Z,49.80
2018-10-05T14:29:01.215Z,49.80
2018-10-05T14:31:29.922Z,49.90
2018-10-05T14:33:58.483Z,49.90
2018-10-05T14:36:26.992Z,49.80
2018-10-05T14:38:55.471Z,49.80
2018-10-05T14:41:24.153Z,49.80
2018-10-05T14:43:52.677Z,49.90
2018-10-05T14:46:21.205Z,49.80
2018-10-05T14:48:49.765Z,49.80
2018-10-05T14:51:18.384Z,49.80
2018-10-05T14:53:46.912Z,49.90
2018-10-05T14:56:15.471Z,49.90
2018-10-05T14:58:44.307Z,49.90
2018-10-05T15:01:12.854Z,49.90
2018-10-05T15:03:41.330Z,49.90
2018-10-05T15:06:10.115Z,49.90
2018-10-05T15:08:38.792Z,49.90
2018-10-05T15:11:07.321Z,49.90
2018-10-05T15:13:35.777Z,49.90
2018-10-05T15:16:04.371Z,50.30
2018-10-05T15:18:33.052Z,49.90
2018-10-05T15:21:01.550Z,49.90
2018-10-05T15:23:30.191Z,49.90
2018-10-05T15:25:59.016Z,49.90
2018-10-05T15:28:27.508Z,49.90
2018-10-05T15:30:56.319Z,49.90
2018-10-05T15:33:25.178Z,49.90
2018-10-05T15:35:53.869Z,49.90
2018-10-05T15:38:22.516Z,49.90
2018-10-05T15:40:51.061Z,49.90
2018-10-05T15:43:20.098Z,49.90
2018-10-05T15:45:48.707Z,49.90
2018-10-05T15:48:17.292Z,49.90
2018-10-05T15:50:45.806Z,49.90
2018-10-05T15:53:14.528Z,49.90
2018-10-05T15:55:43.480Z,49.90
2018-10-05T15:58:12.018Z,49.90
2018-10-05T16:00:40.838Z,50.00
2018-10-05T16:03:09.434Z,49.90
2018-10-05T16:05:38.323Z,49.90
2018-10-05T16:08:06.870Z,50.00
2018-10-05T16:10:35.402Z,50.00
2018-10-05T16:13:03.894Z,50.00
2018-10-05T16:15:32.636Z,50.00
2018-10-05T16:18:01.208Z,50.00
2018-10-05T16:20:29.857Z,50.00
2018-10-05T16:22:58.338Z,50.00
2018-10-05T16:25:26.836Z,49.90
2018-10-05T16:27:55.476Z,50.10
2018-10-05T16:30:24.094Z,49.90
2018-10-05T16:32:52.622Z,49.90
2018-10-05T16:35:21.302Z,49.90
2018-10-05T16:37:50.181Z,50.00
2018-10-05T16:40:18.839Z,50.00
2018-10-05T16:42:47.382Z,50.00
2018-10-05T16:45:15.954Z,50.00
2018-10-05T16:47:45.234Z,50.00
2018-10-05T16:50:13.998Z,50.00
2018-10-05T16:52:42.487Z,50.00
2018-10-05T16:55:10.990Z,50.00
2018-10-05T16:57:39.725Z,50.00
2018-10-05T17:00:08.257Z,50.00
2018-10-05T17:02:36.817Z,50.00
2018-10-05T17:05:05.298Z,50.00
2018-10-05T17:07:33.878Z,50.00
2018-10-05T17:10:02.438Z,50.00
2018-10-05T17:12:31.046Z,50.00
2018-10-05T17:14:59.582Z,50.00
2018-10-05T17:17:28.065Z,50.00
2018-10-05T17:19:56.603Z,50.00
2018-10-05T17:22:25.279Z,50.00
2018-10-05T17:24:53.900Z,50.00
2018-10-05T17:27:22.374Z,50.00
2018-10-05T17:29:50.923Z,50.00
2018-10-05T17:32:19.520Z,50.20
2018-10-05T17:34:47.969Z,50.00
2018-10-05T17:37:16.498Z,50.00
2018-10-05T17:39:44.970Z,50.00
2018-10-05T17:42:13.626Z,50.00
2018-10-05T17:44:42.112Z,50.00
2018-10-05T17:47:10.668Z,50.00
2018-10-05T17:49:39.273Z,50.00
2018-10-05T17:52:07.815Z,50.00
2018-10-05T17:54:36.386Z,50.00
2018-10-05T17:57:04.810Z,50.00
2018-10-05T17:59:33.397Z,50.00
2018-10-05T18:02:02.028Z,50.00
2018-10-05T18:04:30.509Z,49.90
2018-10-05T18:06:59.227Z,49.90
2018-10-05T18:09:27.681Z,50.00
2018-10-05T18:11:56.159Z,50.00
2018-10-05T18:14:24.884Z,50.00
2018-10-05T18:16:53.359Z,50.00
2018-10-05T18:19:21.966Z,50.60
2018-10-05T18:21:50.425Z,50.00
2018-10-05T18:24:18.922Z,49.90
2018-10-05T18:26:47.415Z,49.90
2018-10-05T18:29:16.097Z,50.00
2018-10-05T18:31:44.652Z,49.90
2018-10-05T18:34:13.264Z,50.00
2018-10-05T18:36:41.736Z,50.00
2018-10-05T18:39:10.774Z,50.00
2018-10-05T18:41:40.145Z,50.60
2018-10-05T18:44:08.667Z,50.00
2018-10-05T18:46:37.378Z,49.90
2018-10-05T18:49:06.104Z,50.00
2018-10-05T18:51:34.628Z,50.00
2018-10-05T18:54:03.525Z,50.00
2018-10-05T18:56:43.614Z,49.90
2018-10-05T18:59:12.729Z,49.90
2018-10-05T19:01:41.406Z,50.00
2018-10-05T19:04:09.906Z,50.00
2018-10-05T19:06:38.478Z,50.00
2018-10-05T19:09:07.316Z,50.00
2018-10-05T19:11:36.476Z,50.00
2018-10-05T19:14:05.219Z,50.00
2018-10-05T19:16:33.807Z,49.90
2018-10-05T19:19:02.333Z,50.00
2018-10-05T19:21:30.822Z,50.00
2018-10-05T19:23:59.308Z,50.00
2018-10-05T19:26:27.913Z,50.00
2018-10-05T19:28:56.302Z,50.10
2018-10-05T19:31:24.839Z,50.00
2018-10-05T19:33:53.333Z,49.90
2018-10-05T19:36:21.871Z,50.00
2018-10-05T19:38:50.367Z,50.00
2018-10-05T19:41:18.867Z,50.00
2018-10-05T19:43:47.290Z,50.00
2018-10-05T19:46:15.790Z,50.00
2018-10-05T19:48:44.538Z,50.00
2018-10-05T19:51:13.001Z,50.00
2018-10-05T19:53:41.556Z,50.00
2018-10-05T19:56:10.445Z,50.00
2018-10-05T19:58:39.037Z,50.00
2018-10-05T20:01:07.491Z,50.00
2018-10-05T20:03:36.064Z,50.00
2018-10-05T20:06:04.541Z,50.00
2018-10-05T20:08:32.970Z,50.00
2018-10-05T20:11:01.691Z,50.00
2018-10-05T20:13:30.427Z,50.00
2018-10-05T20:15:59.461Z,50.00
2018-10-05T20:18:28.540Z,49.90
2018-10-05T20:20:57.139Z,49.90
2018-10-05T20:23:25.957Z,50.70
2018-10-05T20:25:58.797Z,50.40
2018-10-05T20:28:29.006Z,50.20
2018-10-05T20:30:57.770Z,52.60
2018-10-05T20:33:26.531Z,51.40
2018-10-05T20:35:55.214Z,51.40
2018-10-05T20:38:24.003Z,51.10
2018-10-05T20:43:49.236Z,51.10
2018-10-05T20:46:17.759Z,51.10
2018-10-05T20:48:46.254Z,50.20
2018-10-05T20:51:14.901Z,50.50
2018-10-05T20:53:43.710Z,49.50
2018-10-05T20:56:12.403Z,49.30
2018-10-05T20:58:40.942Z,50.20
2018-10-05T21:01:10.699Z,49.70
2018-10-05T21:03:39.958Z,49.30
2018-10-05T21:06:09.226Z,49.40
2018-10-05T21:08:38.385Z,49.50
2018-10-05T21:11:06.956Z,49.30
2018-10-05T21:13:35.770Z,49.40
2018-10-05T21:16:04.451Z,49.20
2018-10-05T21:18:33.081Z,49.50
2018-10-05T21:21:01.683Z,49.00
2018-10-05T21:23:30.321Z,49.00
2018-10-05T21:25:58.796Z,48.80
2018-10-05T21:28:27.269Z,48.80
2018-10-05T21:30:55.886Z,49.20
2018-10-05T21:33:24.484Z,51.10
2018-10-05T21:35:53.073Z,50.90
2018-10-05T21:38:22.036Z,51.80
2018-10-05T21:40:50.630Z,52.70
2018-10-05T21:43:19.310Z,50.60
2018-10-05T21:45:47.956Z,50.10
2018-10-05T21:48:17.965Z,49.40
2018-10-05T21:50:47.667Z,50.20
2018-10-05T21:53:16.389Z,49.00
2018-10-05T21:55:45.677Z,49.80
2018-10-05T21:58:15.270Z,49.00
2018-10-05T22:00:44.803Z,49.10
2018-10-05T22:03:13.443Z,48.80
2018-10-05T22:05:42.351Z,48.50
2018-10-05T22:08:11.087Z,48.40
2018-10-05T22:10:40.680Z,49.00
2018-10-05T22:13:09.094Z,48.80
2018-10-05T22:15:38.344Z,48.50
2018-10-05T22:18:07.080Z,48.40
2018-10-05T22:20:35.874Z,47.90
2018-10-05T22:23:04.722Z,47.70
2018-10-05T22:25:33.186Z,47.60
2018-10-05T22:28:01.617Z,47.60
2018-10-05T22:30:32.382Z,47.60
2018-10-05T22:33:02.052Z,47.50
2018-10-05T22:35:30.694Z,47.60
2018-10-05T22:38:00.194Z,47.60
2018-10-05T22:40:29.594Z,47.70
2018-10-05T22:42:58.319Z,48.30
2018-10-05T22:45:26.984Z,47.90
2018-10-05T22:47:56.458Z,47.90
2018-10-05T22:50:25.752Z,48.00
2018-10-05T22:52:54.777Z,48.10
2018-10-05T22:55:23.583Z,48.10
2018-10-05T22:57:52.940Z,48.10
2018-10-05T23:00:21.627Z,48.20
2018-10-05T23:02:52.344Z,48.20
2018-10-05T23:05:21.037Z,48.30
2018-10-05T23:07:50.147Z,48.40
2018-10-05T23:10:20.029Z,49.10
2018-10-05T23:12:48.437Z,48.50
2018-10-05T23:15:17.041Z,49.20
2018-10-05T23:17:45.581Z,48.60
2018-10-05T23:20:14.386Z,48.70
2018-10-05T23:22:43.111Z,48.80
2018-10-05T23:25:11.581Z,48.70
2018-10-05T23:27:41.421Z,48.80
2018-10-05T23:30:09.963Z,49.00
2018-10-05T23:32:39.221Z,49.30
2018-10-05T23:35:08.085Z,48.90
2018-10-05T23:37:36.565Z,48.90
2018-10-05T23:40:05.092Z,49.00
2018-10-05T23:42:34.027Z,49.10
2018-10-05T23:45:02.697Z,49.10
2018-10-05T23:47:31.356Z,49.10
2018-10-05T23:49:59.887Z,49.10
2018-10-05T23:52:43.354Z,49.20
2018-10-05T23:55:11.984Z,49.30
2018-10-05T23:57:40.990Z,49.20
